Time;durP1;ratioP1;P1;durP2;ratioP2;P2;SDS_P1;SDS_P2;PMS_P1;PMS_P2;Temp;Humidity;BMP_temperature;BMP_pressure;BME280_temperature;BME280_humidity;BME280_pressure;Samples;Min_cycle;Max_cycle;Signal;HPM_P1;HPM_P2
2023/08/07 00:01:41;;;;;;;6.80;4.80;;;;;;;18.84;76.16;95607.53;5012960;28;20134;-69
2023/08/07 00:04:08;;;;;;;4.88;4.45;;;;;;;18.82;76.39;95607.66;5013019;28;20049;-69
2023/08/07 00:06:36;;;;;;;4.50;4.13;;;;;;;18.81;76.92;95608.63;5014726;28;20125;-69
2023/08/07 00:09:03;;;;;;;4.95;4.45;;;;;;;18.82;77.20;95607.66;5016794;28;20497;-69
2023/08/07 00:11:32;;;;;;;6.65;4.45;;;;;;;18.84;77.09;95613.66;5016844;28;20049;-69
2023/08/07 00:14:00;;;;;;;5.82;4.25;;;;;;;18.87;76.12;95623.16;5016771;28;20104;-69
2023/08/07 00:16:27;;;;;;;5.40;4.50;;;;;;;18.85;76.27;95619.78;5016626;28;20476;-69
2023/08/07 00:18:56;;;;;;;5.07;4.60;;;;;;;18.84;76.37;95626.06;5016600;28;20049;-69
2023/08/07 00:21:23;;;;;;;4.13;3.83;;;;;;;18.79;76.45;95629.13;5016580;28;20052;-69
2023/08/07 00:23:52;;;;;;;4.78;4.20;;;;;;;18.81;76.52;95621.84;5016537;28;20054;-69
2023/08/07 00:26:19;;;;;;;5.85;3.90;;;;;;;18.75;76.38;95623.22;5016394;28;20046;-69
2023/08/07 00:28:48;;;;;;;5.40;4.53;;;;;;;18.72;76.72;95618.19;5016419;28;20054;-69
2023/08/07 00:31:15;;;;;;;4.82;4.32;;;;;;;18.71;76.06;95623.63;5016309;28;20503;-69
2023/08/07 00:33:43;;;;;;;6.40;4.78;;;;;;;18.62;75.40;95628.75;5016131;28;20046;-69
2023/08/07 00:36:10;;;;;;;4.75;3.67;;;;;;;18.61;74.68;95631.53;5016273;28;20046;-69
2023/08/07 00:38:37;;;;;;;3.47;3.17;;;;;;;18.61;74.08;95631.53;5016212;28;20050;-69
2023/08/07 00:41:07;;;;;;;5.28;3.85;;;;;;;18.67;74.42;95637.13;5016173;28;20054;-69
2023/08/07 00:43:34;;;;;;;7.53;3.80;;;;;;;18.72;73.94;95626.13;5016109;28;20050;-69
2023/08/07 00:46:04;;;;;;;5.63;3.85;;;;;;;18.81;73.76;95628.00;5016068;28;20422;-69
2023/08/07 00:48:33;;;;;;;3.50;3.13;;;;;;;18.84;73.60;95624.25;5016052;28;20475;-69
2023/08/07 00:51:01;;;;;;;3.85;3.45;;;;;;;18.89;73.25;95623.84;5016142;28;20124;-69
2023/08/07 00:53:28;;;;;;;3.85;3.47;;;;;;;18.87;73.42;95629.28;5016002;28;20518;-69
2023/08/07 00:55:55;;;;;;;3.67;3.30;;;;;;;18.88;73.52;95616.88;5015830;28;20058;-69
2023/08/07 00:58:23;;;;;;;3.72;3.42;;;;;;;18.84;73.72;95631.38;5015825;28;20046;-70
2023/08/07 01:00:50;;;;;;;4.03;3.63;;;;;;;18.85;72.98;95627.75;5015855;28;20050;-69
2023/08/07 01:03:19;;;;;;;4.15;3.70;;;;;;;18.82;73.47;95634.16;5015823;28;20137;-69
2023/08/07 01:05:46;;;;;;;3.97;3.35;;;;;;;18.76;73.38;95635.53;5015735;28;20077;-69
2023/08/07 01:08:13;;;;;;;3.85;3.50;;;;;;;18.71;73.64;95643.00;5015574;28;20050;-69
2023/08/07 01:10:52;;;;;;;4.55;3.30;;;;;;;18.57;73.79;95657.41;5015692;28;20046;-69
2023/08/07 01:13:29;;;;;;;4.43;4.03;;;;;;;18.44;74.77;95655.81;5015648;28;20124;-69
2023/08/07 01:16:00;;;;;;;6.57;3.50;;;;;;;18.38;75.66;95652.84;5015564;28;20115;-69
2023/08/07 01:18:31;;;;;;;5.43;3.95;;;;;;;18.35;75.35;95653.94;5015103;28;20054;-69
2023/08/07 01:20:57;;;;;;;4.28;3.30;;;;;;;18.28;75.26;95661.56;5015457;28;20054;-69
2023/08/07 01:23:26;;;;;;;4.30;3.90;;;;;;;18.19;75.18;95660.50;5015322;28;20054;-69
2023/08/07 01:25:53;;;;;;;7.07;3.35;;;;;;;18.15;74.38;95668.84;5015175;28;20053;-69
2023/08/07 01:28:27;;;;;;;4.95;2.63;;;;;;;18.17;73.79;95659.81;5015244;28;20042;-69
2023/08/07 01:31:00;;;;;;;3.70;2.30;;;;;;;18.28;71.99;95655.44;5015241;28;20042;-69
2023/08/07 01:33:33;;;;;;;3.70;2.50;;;;;;;18.39;70.66;95662.47;5015249;28;20049;-69
2023/08/07 01:36:03;;;;;;;2.63;2.42;;;;;;;18.51;70.06;95665.91;5014998;28;20046;-69
2023/08/07 01:38:33;;;;;;;2.50;2.30;;;;;;;18.65;68.76;95670.00;5015234;28;20046;-69
2023/08/07 01:41:01;;;;;;;8.50;2.53;;;;;;;18.74;68.07;95677.19;5015103;28;20061;-69
2023/08/07 01:43:28;;;;;;;2.33;1.95;;;;;;;18.78;68.46;95683.06;5014973;28;20085;-69
2023/08/07 01:45:55;;;;;;;3.25;2.45;;;;;;;18.82;68.42;95677.34;5014982;28;20057;-69
2023/08/07 01:48:23;;;;;;;4.40;2.33;;;;;;;18.91;67.99;95673.06;5015034;28;20104;-70
2023/08/07 01:50:50;;;;;;;2.50;2.30;;;;;;;18.99;67.25;95676.91;5015009;28;20120;-69
2023/08/07 01:53:17;;;;;;;7.07;2.20;;;;;;;19.05;67.57;95676.34;5014917;28;20086;-69
2023/08/07 01:55:45;;;;;;;3.13;2.35;;;;;;;19.03;68.07;95659.75;5014789;28;20403;-69
2023/08/07 01:58:12;;;;;;;2.90;2.58;;;;;;;19.00;66.99;95673.28;5014769;28;20396;-69
2023/08/07 02:00:39;;;;;;;4.60;2.60;;;;;;;18.99;67.82;95666.31;5014610;28;20053;-70
2023/08/07 02:03:06;;;;;;;2.80;2.50;;;;;;;18.93;67.19;95671.16;5014699;28;20050;-69
2023/08/07 02:05:33;;;;;;;3.05;2.78;;;;;;;18.94;67.03;95664.88;5014386;28;20492;-69
2023/08/07 02:08:01;;;;;;;2.72;2.30;;;;;;;19.01;67.33;95665.19;5014558;28;20415;-69
2023/08/07 02:10:28;;;;;;;3.00;2.70;;;;;;;19.04;67.20;95666.72;5014386;28;20104;-69
2023/08/07 02:12:59;;;;;;;3.35;2.25;;;;;;;19.03;66.38;95665.06;5014444;28;20050;-69
2023/08/07 02:15:26;;;;;;;2.88;2.50;;;;;;;18.99;66.81;95674.25;5014452;28;20042;-69
2023/08/07 02:17:53;;;;;;;2.40;2.20;;;;;;;19.03;66.06;95673.00;5014263;28;20077;-69
2023/08/07 02:20:20;;;;;;;2.17;2.03;;;;;;;19.03;66.31;95675.66;5014309;28;20088;-69
2023/08/07 02:22:47;;;;;;;6.72;2.30;;;;;;;19.01;66.21;95681.09;5014345;28;20058;-69
2023/08/07 02:25:14;;;;;;;3.83;2.30;;;;;;;19.04;65.70;95686.13;5014058;28;20100;-69
2023/08/07 02:27:41;;;;;;;3.17;2.40;;;;;;;19.00;65.39;95686.53;5014380;28;20377;-69
2023/08/07 02:30:10;;;;;;;2.40;2.20;;;;;;;19.02;65.08;95682.75;5013514;28;20108;-69
2023/08/07 02:32:37;;;;;;;2.75;2.22;;;;;;;19.02;65.24;95696.00;5014019;28;20046;-69
2023/08/07 02:35:05;;;;;;;2.53;2.25;;;;;;;19.00;65.28;95681.22;5014188;28;20050;-70
2023/08/07 02:37:32;;;;;;;2.20;2.00;;;;;;;19.01;65.27;95693.50;5014087;28;20112;-69
2023/08/07 02:39:59;;;;;;;2.08;1.98;;;;;;;18.97;65.31;95695.59;5014025;28;20058;-69
2023/08/07 02:42:26;;;;;;;3.83;2.47;;;;;;;19.01;65.18;95696.13;5013984;28;20448;-69
2023/08/07 02:44:53;;;;;;;2.10;1.63;;;;;;;19.03;65.23;95697.69;5013849;28;20558;-69
2023/08/07 02:47:22;;;;;;;3.03;2.05;;;;;;;19.04;65.10;95699.38;5013861;28;20395;-69
2023/08/07 02:49:49;;;;;;;3.30;2.42;;;;;;;19.03;65.52;95700.31;5013898;28;20061;-69
2023/08/07 02:52:16;;;;;;;4.55;2.30;;;;;;;19.03;64.50;95710.09;5013830;28;20054;-69
2023/08/07 02:54:43;;;;;;;2.30;2.10;;;;;;;18.99;65.06;95712.16;5013814;28;20053;-69
2023/08/07 02:57:10;;;;;;;2.08;1.90;;;;;;;18.97;65.00;95714.13;5013645;28;20092;-69
2023/08/07 02:59:37;;;;;;;2.15;1.80;;;;;;;18.93;65.69;95713.53;5013585;28;20558;-69
2023/08/07 03:02:05;;;;;;;3.85;2.40;;;;;;;18.82;65.79;95714.44;5013636;28;20046;-69
2023/08/07 03:04:33;;;;;;;3.15;2.30;;;;;;;18.80;66.88;95720.84;5013535;28;20049;-69
2023/08/07 03:07:01;;;;;;;3.28;2.45;;;;;;;18.84;66.67;95732.03;5013653;28;20046;-69
2023/08/07 03:09:28;;;;;;;2.20;2.05;;;;;;;18.86;66.91;95738.03;5013332;28;20054;-69
2023/08/07 03:11:55;;;;;;;4.07;2.67;;;;;;;18.82;66.44;95738.28;5013506;28;20458;-69
2023/08/07 03:14:22;;;;;;;4.68;2.35;;;;;;;18.73;67.24;95741.72;5013554;28;20526;-69
2023/08/07 03:16:49;;;;;;;2.47;2.28;;;;;;;18.60;67.86;95739.25;5013375;28;20057;-69
2023/08/07 03:19:16;;;;;;;5.88;2.25;;;;;;;18.48;67.35;95746.41;5013331;28;20049;-69
2023/08/07 03:21:45;;;;;;;5.00;2.47;;;;;;;18.45;68.11;95751.94;5013406;28;20048;-69
2023/08/07 03:24:12;;;;;;;3.00;2.60;;;;;;;18.36;68.58;95755.38;5013098;28;20050;-69
2023/08/07 03:26:39;;;;;;;3.15;2.85;;;;;;;18.29;68.51;95755.03;5013364;28;20144;-70
2023/08/07 03:29:06;;;;;;;3.03;2.63;;;;;;;18.23;68.86;95759.00;5013305;28;20053;-69
2023/08/07 03:31:33;;;;;;;2.67;2.15;;;;;;;18.17;69.52;95751.56;5013218;28;20050;-69
2023/08/07 03:34:00;;;;;;;2.83;2.30;;;;;;;18.15;69.56;95753.53;5013270;28;20046;-69
2023/08/07 03:36:27;;;;;;;3.15;2.58;;;;;;;18.16;69.11;95756.03;5013091;28;20491;-69
2023/08/07 03:38:56;;;;;;;2.50;2.30;;;;;;;18.12;68.85;95761.72;5013223;28;20129;-69
2023/08/07 03:41:23;;;;;;;3.60;2.42;;;;;;;18.00;69.41;95766.97;5016411;28;20053;-70
2023/08/07 03:43:50;;;;;;;2.90;2.60;;;;;;;17.94;69.33;95770.97;5017350;28;20116;-69
2023/08/07 03:46:17;;;;;;;3.42;2.88;;;;;;;17.89;69.21;95777.59;5017225;28;20050;-70
2023/08/07 03:48:45;;;;;;;2.80;2.30;;;;;;;17.85;69.74;95773.50;5017147;28;20132;-69
2023/08/07 03:51:14;;;;;;;4.30;2.78;;;;;;;17.83;69.76;95780.72;5016973;28;20077;-69
2023/08/07 03:53:41;;;;;;;3.45;2.55;;;;;;;17.81;69.89;95781.69;5017025;28;20046;-69
2023/08/07 03:56:11;;;;;;;2.75;2.55;;;;;;;17.75;70.65;95784.81;5017112;28;20442;-69
2023/08/07 03:58:38;;;;;;;3.20;2.50;;;;;;;17.85;69.30;95779.63;5017006;28;20085;-69
2023/08/07 04:01:05;;;;;;;4.63;2.35;;;;;;;17.93;69.20;95771.94;5016787;28;20072;-70
2023/08/07 04:03:33;;;;;;;2.95;1.90;;;;;;;18.13;67.37;95780.09;5016958;28;20064;-69
2023/08/07 04:06:01;;;;;;;1.70;1.60;;;;;;;18.45;65.73;95783.72;5017032;28;20049;-69
2023/08/07 04:08:29;;;;;;;4.53;2.53;;;;;;;18.90;63.90;95792.47;5016918;28;20092;-70
2023/08/07 04:11:02;;;;;;;2.25;1.83;;;;;;;19.38;61.99;95793.75;5016828;28;20128;-69
2023/08/07 04:13:33;;;;;;;2.90;1.50;;;;;;;19.96;58.54;95791.47;5016710;28;20052;-69
2023/08/07 04:16:04;;;;;;;1.73;1.63;;;;;;;20.56;56.20;95800.41;5016689;28;20054;-69
2023/08/07 04:18:34;;;;;;;1.67;1.58;;;;;;;21.16;53.89;95804.72;5016459;28;20057;-69
2023/08/07 04:21:01;;;;;;;2.75;2.55;;;;;;;21.76;51.97;95800.09;5016562;28;20049;-69
2023/08/07 04:23:34;;;;;;;2.35;1.90;;;;;;;22.29;50.25;95805.72;5016555;28;20444;-69
2023/08/07 04:26:03;;;;;;;7.28;1.92;;;;;;;22.71;50.47;95811.47;5016133;28;20104;-69
2023/08/07 04:28:40;;;;;;;3.92;2.70;;;;;;;23.20;48.62;95821.72;5016399;28;20045;-70
2023/08/07 04:31:08;;;;;;;4.45;2.15;;;;;;;23.65;46.63;95819.03;5016265;28;20050;-69
2023/08/07 04:33:36;;;;;;;2.45;2.10;;;;;;;24.00;46.16;95820.88;5016324;28;20491;-69
2023/08/07 04:36:04;;;;;;;1.67;1.58;;;;;;;24.39;45.08;95823.06;5016145;28;20054;-69
2023/08/07 04:38:32;;;;;;;2.10;1.42;;;;;;;24.47;44.23;95817.72;5016234;28;20060;-69
2023/08/07 04:40:59;;;;;;;3.22;1.60;;;;;;;24.68;43.68;95818.28;5016202;28;20133;-68
2023/08/07 04:43:27;;;;;;;1.80;1.67;;;;;;;25.01;43.61;95822.84;5016058;28;20046;-69
2023/08/07 04:45:56;;;;;;;1.40;1.30;;;;;;;25.18;43.13;95820.97;5016139;28;20050;-69
2023/08/07 04:48:25;;;;;;;1.98;1.42;;;;;;;25.60;42.43;95830.69;5016142;28;20042;-69
2023/08/07 04:50:52;;;;;;;3.03;1.48;;;;;;;25.80;41.69;95832.13;5015981;28;20084;-69
2023/08/07 04:53:20;;;;;;;1.50;1.40;;;;;;;26.07;41.01;95830.84;5015183;28;20066;-69
2023/08/07 04:55:48;;;;;;;1.67;1.55;;;;;;;26.44;40.21;95831.22;5015873;28;20149;-69
2023/08/07 04:58:15;;;;;;;1.35;1.25;;;;;;;26.82;39.66;95843.06;5015842;28;20049;-69
2023/08/07 05:00:42;;;;;;;1.50;1.40;;;;;;;27.08;38.90;95839.22;5015974;28;20045;-69
2023/08/07 05:03:11;;;;;;;1.67;1.27;;;;;;;27.06;39.05;95842.06;5015822;28;20046;-69
2023/08/07 05:05:38;;;;;;;2.65;1.40;;;;;;;27.10;38.70;95847.94;5015822;28;20042;-69
2023/08/07 05:08:06;;;;;;;1.70;1.40;;;;;;;27.46;39.24;95854.50;5015724;28;20050;-69
2023/08/07 05:10:33;;;;;;;2.30;1.60;;;;;;;27.57;37.67;95845.19;5015465;28;20054;-68
2023/08/07 05:13:00;;;;;;;1.80;1.55;;;;;;;27.82;37.16;95850.31;5015681;28;20057;-68
2023/08/07 05:15:30;;;;;;;1.30;1.20;;;;;;;27.95;37.48;95855.88;5015700;28;20053;-68
2023/08/07 05:17:57;;;;;;;3.22;1.58;;;;;;;28.03;37.19;95851.44;5015633;28;20042;-69
2023/08/07 05:20:26;;;;;;;1.67;1.58;;;;;;;28.05;36.45;95857.47;5015677;28;20463;-68
2023/08/07 05:22:53;;;;;;;1.27;1.17;;;;;;;28.41;37.08;95859.41;5015434;28;20056;-68
2023/08/07 05:25:20;;;;;;;1.63;1.20;;;;;;;28.47;35.86;95857.84;5015156;28;20042;-68
2023/08/07 05:27:47;;;;;;;3.42;1.42;;;;;;;28.54;36.40;95852.53;5015364;28;20057;-68
2023/08/07 05:30:15;;;;;;;1.90;1.30;;;;;;;28.62;35.54;95863.16;5015260;28;20054;-68
2023/08/07 05:32:43;;;;;;;1.40;1.30;;;;;;;28.34;35.47;95870.09;5015309;28;20060;-67
2023/08/07 05:35:10;;;;;;;1.98;1.48;;;;;;;28.43;36.09;95864.59;5015209;28;20042;-67
2023/08/07 05:37:39;;;;;;;1.80;1.42;;;;;;;28.36;36.25;95862.66;5015193;28;20050;-67
2023/08/07 05:40:08;;;;;;;1.30;1.20;;;;;;;28.47;35.29;95869.41;5015033;28;20483;-68
2023/08/07 05:42:35;;;;;;;3.05;1.60;;;;;;;28.55;35.28;95855.03;5015250;28;20104;-67
2023/08/07 05:45:02;;;;;;;3.38;1.50;;;;;;;28.34;34.92;95859.34;5014975;28;20606;-67
2023/08/07 05:47:30;;;;;;;1.25;1.15;;;;;;;28.43;34.78;95872.66;5014953;28;20041;-68
2023/08/07 05:49:57;;;;;;;1.38;1.27;;;;;;;28.36;34.88;95876.09;5014874;28;20050;-67
2023/08/07 05:52:24;;;;;;;1.33;1.23;;;;;;;28.26;34.85;95876.34;5014947;28;20439;-67
2023/08/07 05:54:53;;;;;;;1.27;1.17;;;;;;;28.37;35.20;95877.78;5014850;28;20050;-68
2023/08/07 05:57:20;;;;;;;3.03;1.20;;;;;;;28.33;34.63;95883.72;5014734;28;20042;-68
2023/08/07 05:59:47;;;;;;;2.13;1.35;;;;;;;28.46;34.65;95885.72;5014644;28;20100;-68
2023/08/07 06:02:15;;;;;;;2.17;1.52;;;;;;;28.80;34.49;95892.34;5014654;28;20084;-67
2023/08/07 06:04:42;;;;;;;1.73;1.38;;;;;;;29.14;33.83;95892.75;5013583;28;20062;-67
2023/08/07 06:07:09;;;;;;;1.30;1.20;;;;;;;29.26;33.92;95887.66;5014623;28;20050;-67
2023/08/07 06:09:37;;;;;;;2.00;1.45;;;;;;;29.52;33.45;95880.84;5014574;28;20096;-68
2023/08/07 06:12:06;;;;;;;1.30;1.20;;;;;;;29.90;32.76;95890.47;5014567;28;20050;-67
2023/08/07 06:14:34;;;;;;;2.33;1.20;;;;;;;30.04;30.98;95890.56;5014632;28;20462;-68
2023/08/07 06:17:01;;;;;;;2.78;1.20;;;;;;;30.22;30.68;95893.59;5014445;28;20050;-68
2023/08/07 06:19:29;;;;;;;1.20;1.10;;;;;;;30.36;30.85;95897.22;5014383;28;20146;-67
2023/08/07 06:21:57;;;;;;;1.17;0.98;;;;;;;30.08;30.97;95898.06;5014321;28;20410;-67
2023/08/07 06:24:25;;;;;;;1.55;1.20;;;;;;;30.12;30.61;95888.53;5013931;28;20132;-68
2023/08/07 06:26:52;;;;;;;1.38;1.27;;;;;;;30.17;31.19;95904.16;5014370;28;20487;-68
2023/08/07 06:29:21;;;;;;;1.33;1.23;;;;;;;30.41;30.43;95909.25;5014264;28;20045;-68
2023/08/07 06:31:48;;;;;;;0.85;0.85;;;;;;;29.77;30.56;95904.69;5014160;28;20546;-68
2023/08/07 06:34:15;;;;;;;3.72;1.20;;;;;;;29.64;31.50;95903.56;5014276;28;20103;-68
2023/08/07 06:36:42;;;;;;;1.02;0.98;;;;;;;29.90;30.79;95909.34;5014322;28;20045;-68
2023/08/07 06:39:09;;;;;;;0.80;0.80;;;;;;;30.05;29.79;95908.41;5014142;28;20073;-67
2023/08/07 06:41:37;;;;;;;3.50;1.30;;;;;;;29.98;30.92;95911.88;5014117;28;20129;-68
2023/08/07 06:44:04;;;;;;;3.17;1.48;;;;;;;30.10;30.64;95911.34;5013955;28;20064;-68
2023/08/07 06:46:34;;;;;;;1.20;1.10;;;;;;;30.25;29.40;95912.06;5013811;28;20153;-68
2023/08/07 06:49:01;;;;;;;2.57;1.23;;;;;;;30.54;30.74;95913.88;5013884;28;20133;-68
2023/08/07 06:51:28;;;;;;;1.08;0.95;;;;;;;30.63;29.60;95915.38;5013691;28;20057;-67
2023/08/07 06:53:55;;;;;;;1.10;1.05;;;;;;;30.81;29.42;95912.16;5013704;28;20514;-68
2023/08/07 06:56:22;;;;;;;3.17;1.10;;;;;;;30.86;28.09;95916.94;5013640;28;20057;-68
2023/08/07 06:58:49;;;;;;;3.13;1.10;;;;;;;30.85;28.41;95921.50;5013752;28;20104;-68
2023/08/07 07:01:17;;;;;;;1.00;1.00;;;;;;;31.01;29.64;95924.88;5013749;28;20053;-68
2023/08/07 07:03:52;;;;;;;2.90;0.90;;;;;;;30.83;28.34;95915.50;5013432;28;20052;-68
2023/08/07 07:06:20;;;;;;;0.95;0.95;;;;;;;30.60;28.89;95922.00;5013619;28;20050;-68
2023/08/07 07:08:47;;;;;;;1.00;1.00;;;;;;;30.55;27.94;95932.56;5013627;28;20045;-68
2023/08/07 07:11:15;;;;;;;2.00;1.20;;;;;;;30.34;27.77;95928.91;5013494;28;20054;-68
2023/08/07 07:13:42;;;;;;;0.98;0.98;;;;;;;30.80;28.09;95936.63;5013679;28;20046;-68
2023/08/07 07:16:11;;;;;;;3.80;1.10;;;;;;;31.16;27.51;95927.41;5013228;28;20061;-68
2023/08/07 07:18:38;;;;;;;1.20;1.08;;;;;;;31.00;28.07;95932.13;5013615;28;20049;-68
2023/08/07 07:21:07;;;;;;;4.57;1.05;;;;;;;30.77;27.92;95936.03;5013561;28;20120;-68
2023/08/07 07:23:35;;;;;;;1.33;0.98;;;;;;;30.51;27.06;95918.66;5013399;28;20400;-68
2023/08/07 07:26:03;;;;;;;0.90;0.90;;;;;;;30.04;28.59;95925.59;5013132;28;20085;-68
2023/08/07 07:28:32;;;;;;;0.77;0.77;;;;;;;30.14;28.01;95918.84;5013491;28;20052;-67
2023/08/07 07:30:59;;;;;;;3.08;1.10;;;;;;;30.55;28.08;95923.66;5013283;28;20065;-68
2023/08/07 07:33:27;;;;;;;1.10;1.00;;;;;;;30.89;27.91;95928.19;5013340;28;20506;-68
2023/08/07 07:35:55;;;;;;;1.95;0.90;;;;;;;31.30;27.24;95928.25;5013379;28;20212;-68
2023/08/07 07:38:23;;;;;;;2.90;1.35;;;;;;;31.39;25.86;95923.53;5013340;28;20061;-68
2023/08/07 07:40:53;;;;;;;1.10;1.00;;;;;;;31.28;26.40;95931.16;5013332;28;20120;-68
2023/08/07 07:43:20;;;;;;;1.10;1.00;;;;;;;30.93;26.60;95927.75;5013086;28;20108;-68
2023/08/07 07:45:47;;;;;;;1.33;1.00;;;;;;;30.70;27.16;95926.19;5013268;28;20100;-68
2023/08/07 07:48:14;;;;;;;1.55;1.00;;;;;;;31.02;27.11;95927.38;5013219;28;20057;-68
2023/08/07 07:50:42;;;;;;;4.60;0.82;;;;;;;31.18;27.61;95924.50;5013055;28;20085;-68
2023/08/07 07:53:10;;;;;;;1.85;1.20;;;;;;;31.47;25.42;95923.34;5013297;28;20050;-68
2023/08/07 07:55:39;;;;;;;0.90;0.90;;;;;;;31.55;26.24;95926.88;5013135;28;20045;-68
2023/08/07 07:58:06;;;;;;;0.80;0.80;;;;;;;31.59;24.93;95926.25;5013148;28;20104;-68
2023/08/07 08:00:34;;;;;;;1.92;0.98;;;;;;;31.16;26.64;95922.03;5013043;28;20050;-68
2023/08/07 08:03:02;;;;;;;1.50;0.90;;;;;;;31.51;27.68;95919.19;5012994;28;20054;-68
2023/08/07 08:05:29;;;;;;;1.20;1.08;;;;;;;31.92;26.26;95931.84;5013080;28;20046;-68
2023/08/07 08:07:56;;;;;;;0.90;0.70;;;;;;;32.10;25.72;95923.97;5012913;28;20447;-68
2023/08/07 08:10:25;;;;;;;1.17;0.80;;;;;;;32.37;24.64;95932.03;5012911;28;20046;-68
2023/08/07 08:12:56;;;;;;;0.90;0.90;;;;;;;32.35;24.47;95928.69;5012945;28;20045;-69
2023/08/07 08:15:24;;;;;;;1.38;0.90;;;;;;;31.71;25.03;95922.91;5012984;28;20050;-68
2023/08/07 08:17:51;;;;;;;0.85;0.85;;;;;;;31.49;25.32;95928.53;5012985;28;20046;-68
2023/08/07 08:20:19;;;;;;;0.80;0.80;;;;;;;31.75;24.32;95924.16;5012925;28;20062;-68
2023/08/07 08:22:47;;;;;;;1.02;1.00;;;;;;;31.83;24.41;95928.53;5012836;28;20054;-68
2023/08/07 08:25:14;;;;;;;2.90;0.80;;;;;;;31.52;25.80;95928.13;5012570;28;20056;-68
2023/08/07 08:27:42;;;;;;;1.70;0.90;;;;;;;31.82;25.83;95925.00;5014672;28;20049;-68
2023/08/07 08:30:11;;;;;;;1.10;1.00;;;;;;;32.06;25.24;95916.50;5016416;28;20565;-68
2023/08/07 08:32:40;;;;;;;0.95;0.90;;;;;;;31.82;24.82;95918.78;5016269;28;20149;-68
2023/08/07 08:35:08;;;;;;;2.60;1.10;;;;;;;31.87;25.98;95927.06;5016404;28;20502;-68
2023/08/07 08:37:35;;;;;;;1.10;0.90;;;;;;;31.89;25.04;95927.69;5016517;28;20046;-68
2023/08/07 08:40:02;;;;;;;0.80;0.80;;;;;;;31.77;23.94;95931.03;5016271;28;20431;-68
2023/08/07 08:42:29;;;;;;;3.15;1.00;;;;;;;31.87;24.66;95922.50;5016167;28;20049;-68
2023/08/07 08:44:59;;;;;;;1.10;1.00;;;;;;;32.12;26.51;95927.28;5016249;28;20053;-68
2023/08/07 08:47:28;;;;;;;1.00;1.00;;;;;;;32.23;24.68;95933.09;5016131;28;20053;-68
2023/08/07 08:50:02;;;;;;;0.88;0.88;;;;;;;32.20;25.04;95928.94;5016068;28;20049;-68
2023/08/07 08:52:31;;;;;;;1.02;0.95;;;;;;;32.34;24.26;95937.84;5015852;28;20053;-68
2023/08/07 08:55:00;;;;;;;0.82;0.82;;;;;;;32.51;23.67;95926.59;5016054;28;20128;-68
2023/08/07 08:57:27;;;;;;;0.93;0.93;;;;;;;32.67;24.30;95928.00;5015968;28;20506;-68
2023/08/07 08:59:56;;;;;;;0.98;0.80;;;;;;;32.33;24.68;95924.53;5015997;28;20054;-68
2023/08/07 09:02:23;;;;;;;1.02;0.93;;;;;;;31.80;25.20;95928.94;5015924;28;20072;-68
2023/08/07 09:04:51;;;;;;;0.60;0.60;;;;;;;31.95;23.66;95920.66;5015773;28;20137;-68
2023/08/07 09:07:21;;;;;;;1.30;0.90;;;;;;;31.68;23.46;95918.78;5015889;28;20057;-68
2023/08/07 09:09:50;;;;;;;0.90;0.90;;;;;;;31.21;25.32;95918.72;5015736;28;20073;-68
2023/08/07 09:12:21;;;;;;;0.88;0.80;;;;;;;31.45;25.91;95911.91;5015540;28;20425;-68
2023/08/07 09:14:54;;;;;;;0.90;0.90;;;;;;;31.73;24.93;95926.25;5015684;28;20070;-68
2023/08/07 09:17:24;;;;;;;3.70;0.90;;;;;;;31.87;23.71;95922.50;5015623;28;20576;-68
2023/08/07 09:19:53;;;;;;;2.45;0.90;;;;;;;31.61;24.22;95913.38;5015696;28;20086;-68
2023/08/07 09:22:21;;;;;;;0.70;0.70;;;;;;;31.56;23.43;95913.16;5015568;28;20057;-68
2023/08/07 09:24:49;;;;;;;1.00;0.80;;;;;;;31.10;24.08;95917.44;5015150;28;20083;-68
2023/08/07 09:27:16;;;;;;;0.80;0.70;;;;;;;30.66;22.85;95909.56;5015527;28;20423;-68
2023/08/07 09:29:44;;;;;;;0.80;0.80;;;;;;;30.16;24.72;95912.41;5015325;28;20057;-68
2023/08/07 09:32:14;;;;;;;0.85;0.80;;;;;;;30.21;25.93;95913.50;5015292;28;20057;-68
2023/08/07 09:34:44;;;;;;;1.10;1.00;;;;;;;30.29;25.29;95907.13;5015498;28;20129;-68
2023/08/07 09:37:13;;;;;;;1.40;0.90;;;;;;;30.36;25.75;95905.28;5015617;28;20530;-68
2023/08/07 09:39:41;;;;;;;1.05;0.95;;;;;;;30.43;25.40;95913.41;5015341;28;20414;-68
2023/08/07 09:42:15;;;;;;;4.22;1.10;;;;;;;30.28;24.90;95913.56;5015290;28;20050;-68
2023/08/07 09:44:43;;;;;;;2.55;1.02;;;;;;;30.24;24.36;95915.81;5015549;28;20049;-68
2023/08/07 09:47:15;;;;;;;1.77;1.20;;;;;;;30.32;26.24;95916.69;5015067;28;20411;-68
2023/08/07 09:49:46;;;;;;;1.35;0.80;;;;;;;30.51;27.22;95915.09;5015032;28;20050;-68
2023/08/07 09:52:16;;;;;;;1.23;0.88;;;;;;;30.87;26.41;95908.66;5014882;28;20049;-68
2023/08/07 09:54:44;;;;;;;3.63;1.27;;;;;;;31.33;26.98;95916.22;5014991;28;20046;-68
2023/08/07 09:57:11;;;;;;;0.93;0.93;;;;;;;31.56;25.70;95906.91;5014868;28;20046;-68
2023/08/07 09:59:39;;;;;;;1.13;1.00;;;;;;;31.34;25.28;95907.09;5015099;28;20476;-67
2023/08/07 10:02:08;;;;;;;2.78;0.95;;;;;;;31.18;26.20;95903.72;5014752;28;20085;-68
2023/08/07 10:04:36;;;;;;;1.25;1.10;;;;;;;31.32;25.63;95903.75;5014626;28;20085;-68
2023/08/07 10:07:04;;;;;;;1.88;1.05;;;;;;;31.56;25.79;95905.06;5014604;28;20488;-68
2023/08/07 10:09:33;;;;;;;1.70;1.10;;;;;;;31.48;24.74;95905.28;5014754;28;20145;-68
2023/08/07 10:12:01;;;;;;;1.60;1.20;;;;;;;30.78;25.58;95896.38;5014732;28;20385;-68
2023/08/07 10:14:29;;;;;;;1.00;1.00;;;;;;;30.62;27.67;95902.94;5014703;28;20050;-68
2023/08/07 10:16:56;;;;;;;1.60;1.20;;;;;;;30.46;25.66;95890.63;5014406;28;20045;-68
2023/08/07 10:19:23;;;;;;;1.25;1.08;;;;;;;30.59;25.74;95895.22;5014589;28;20659;-67
2023/08/07 10:21:53;;;;;;;1.15;1.00;;;;;;;30.67;26.54;95895.03;5014417;28;20054;-68
2023/08/07 10:24:23;;;;;;;1.45;1.08;;;;;;;30.94;26.86;95889.75;5014165;28;20058;-67
2023/08/07 10:26:54;;;;;;;1.30;1.20;;;;;;;31.04;26.92;95889.38;5014338;28;20099;-67
2023/08/07 10:29:23;;;;;;;;;;;;;;;31.14;26.04;95889.81;5014726;28;20141;-67
2023/08/07 10:31:51;;;;;;;2.08;1.15;;;;;;;31.08;26.02;95889.78;5014274;28;19922;-67
2023/08/07 10:34:19;;;;;;;1.15;1.00;;;;;;;31.15;27.33;95885.22;5014261;28;20075;-67
2023/08/07 10:36:46;;;;;;;0.75;0.75;;;;;;;31.20;26.23;95895.41;5014009;28;20411;-67
2023/08/07 10:39:16;;;;;;;1.75;1.00;;;;;;;31.47;25.67;95888.22;5014070;28;20049;-67
2023/08/07 10:41:47;;;;;;;1.10;1.00;;;;;;;31.49;24.99;95879.91;5014102;28;20053;-69
2023/08/07 10:44:23;;;;;;;1.05;1.00;;;;;;;31.21;25.21;95870.91;5014039;28;20550;-69
2023/08/07 10:46:53;;;;;;;1.17;1.08;;;;;;;31.06;25.95;95871.09;5013858;28;20380;-69
2023/08/07 10:49:34;;;;;;;1.10;1.00;;;;;;;30.73;26.52;95869.16;5013468;28;20488;-69
2023/08/07 10:52:04;;;;;;;2.75;1.35;;;;;;;30.74;26.05;95862.69;5013784;28;20057;-69
2023/08/07 10:54:41;;;;;;;1.30;1.20;;;;;;;30.77;26.61;95863.16;5013805;28;20046;-69
2023/08/07 10:57:13;;;;;;;1.38;0.95;;;;;;;30.99;26.35;95870.25;5013790;28;20046;-69
2023/08/07 10:59:46;;;;;;;0.93;0.80;;;;;;;31.25;26.05;95865.94;5013681;28;20054;-69
2023/08/07 11:02:24;;;;;;;0.85;0.85;;;;;;;31.37;25.58;95860.78;5013561;28;20408;-68
2023/08/07 11:04:52;;;;;;;2.03;1.20;;;;;;;31.60;26.34;95862.25;5013672;28;20049;-68
2023/08/07 11:07:26;;;;;;;1.00;1.00;;;;;;;31.41;25.53;95859.34;5013687;28;20045;-68
2023/08/07 11:09:53;;;;;;;1.13;1.00;;;;;;;31.34;25.38;95853.06;5013503;28;20045;-69
2023/08/07 11:12:21;;;;;;;1.30;1.17;;;;;;;31.47;24.84;95863.06;5013483;28;20046;-69
2023/08/07 11:14:50;;;;;;;1.40;1.20;;;;;;;31.33;24.97;95854.94;5013496;28;20133;-69
2023/08/07 11:17:17;;;;;;;1.10;0.82;;;;;;;31.23;24.44;95849.94;5013468;28;20052;-68
2023/08/07 11:19:51;;;;;;;1.20;1.10;;;;;;;30.63;25.30;95848.78;5013486;28;20062;-69
2023/08/07 11:22:18;;;;;;;1.00;0.90;;;;;;;30.51;24.31;95839.59;5013096;28;20053;-68
2023/08/07 11:24:47;;;;;;;1.55;0.88;;;;;;;30.50;25.99;95827.97;5013012;28;20061;-69
2023/08/07 11:27:14;;;;;;;2.65;1.00;;;;;;;30.64;24.98;95836.13;5013401;28;20108;-69
2023/08/07 11:29:41;;;;;;;1.10;1.00;;;;;;;30.71;25.10;95830.72;5013301;28;20046;-69
2023/08/07 11:32:11;;;;;;;1.25;1.02;;;;;;;30.56;26.41;95830.88;5013377;28;20141;-69
2023/08/07 11:34:38;;;;;;;1.23;0.82;;;;;;;30.72;24.88;95829.69;5013441;28;20050;-68
2023/08/07 11:37:06;;;;;;;0.90;0.90;;;;;;;30.80;25.40;95826.84;5013243;28;20491;-69
2023/08/07 11:39:34;;;;;;;1.30;0.90;;;;;;;30.89;25.49;95828.31;5013219;28;20045;-69